createdAt,value
2022-10-13T00:00:18.422Z,9.90
2022-10-13T00:02:49.266Z,9.86
2022-10-13T00:05:19.811Z,9.82
2022-10-13T00:07:50.275Z,9.79
2022-10-13T00:10:20.999Z,9.76
2022-10-13T00:12:51.804Z,9.74
2022-10-13T00:15:26.148Z,9.72
2022-10-13T00:17:56.611Z,9.71
2022-10-13T00:20:27.069Z,9.70
2022-10-13T00:22:57.402Z,9.70
2022-10-13T00:25:27.979Z,9.69
2022-10-13T00:27:58.392Z,9.68
2022-10-13T00:30:38.393Z,9.68
2022-10-13T00:33:10.082Z,9.68
2022-10-13T00:35:45.966Z,9.68
2022-10-13T00:38:20.180Z,9.70
2022-10-13T00:40:52.806Z,9.71
2022-10-13T00:43:25.391Z,9.73
2022-10-13T00:45:56.703Z,9.74
2022-10-13T00:48:30.949Z,9.75
2022-10-13T00:51:01.578Z,9.76
2022-10-13T00:53:36.574Z,9.75
2022-10-13T00:56:10.832Z,9.75
2022-10-13T00:58:41.869Z,9.73
2022-10-13T01:01:12.282Z,9.73
2022-10-13T01:03:43.290Z,9.73
2022-10-13T01:06:14.606Z,9.74
2022-10-13T01:08:45.387Z,9.73
2022-10-13T01:11:32.393Z,9.73
2022-10-13T01:14:15.336Z,9.71
2022-10-13T01:16:55.826Z,9.71
2022-10-13T01:19:59.808Z,9.70
2022-10-13T01:22:42.745Z,9.71
2022-10-13T01:25:28.512Z,9.70
2022-10-13T01:28:18.554Z,9.70
2022-10-13T01:30:52.895Z,9.70
2022-10-13T01:33:31.676Z,9.70
2022-10-13T01:36:14.720Z,9.72
2022-10-13T01:38:54.001Z,9.73
2022-10-13T01:41:32.407Z,9.73
2022-10-13T01:44:12.703Z,9.73
2022-10-13T01:46:47.918Z,9.73
2022-10-13T01:49:23.362Z,9.74
2022-10-13T01:51:55.551Z,9.74
2022-10-13T01:54:26.044Z,9.73
2022-10-13T01:56:57.589Z,9.73
2022-10-13T01:59:30.696Z,9.70
2022-10-13T02:02:13.081Z,9.67
2022-10-13T02:04:54.048Z,9.64
2022-10-13T02:07:29.080Z,9.62
2022-10-13T02:10:09.386Z,9.59
2022-10-13T02:12:45.427Z,9.57
2022-10-13T02:15:20.536Z,9.55
2022-10-13T02:17:51.831Z,9.53
2022-10-13T02:20:24.520Z,9.52
2022-10-13T02:23:02.083Z,9.51
2022-10-13T02:25:34.598Z,9.49
2022-10-13T02:28:06.501Z,9.48
2022-10-13T02:30:42.144Z,9.45
2022-10-13T02:33:13.670Z,9.44
2022-10-13T02:35:44.436Z,9.42
2022-10-13T02:38:15.238Z,9.40
2022-10-13T02:40:45.812Z,9.38
2022-10-13T02:43:16.705Z,9.36
2022-10-13T02:45:47.153Z,9.35
2022-10-13T02:48:18.724Z,9.34
2022-10-13T02:50:50.126Z,9.33
2022-10-13T02:53:19.088Z,9.33
2022-10-13T02:55:49.532Z,9.31
2022-10-13T02:58:19.978Z,9.30
2022-10-13T03:00:50.506Z,9.27
2022-10-13T03:03:21.252Z,9.26
2022-10-13T03:05:52.747Z,9.24
2022-10-13T03:08:24.889Z,9.23
2022-10-13T03:10:55.323Z,9.23
2022-10-13T03:13:25.773Z,9.23
2022-10-13T03:15:56.222Z,9.21
2022-10-13T03:18:26.516Z,9.20
2022-10-13T03:21:03.254Z,9.20
2022-10-13T03:23:33.945Z,9.20
2022-10-13T03:26:04.784Z,9.19
2022-10-13T03:28:35.219Z,9.18
2022-10-13T03:31:08.544Z,9.15
2022-10-13T03:33:38.908Z,9.12
2022-10-13T03:36:11.553Z,9.10
2022-10-13T03:38:43.699Z,9.07
2022-10-13T03:41:16.972Z,9.03
2022-10-13T03:43:48.323Z,9.00
2022-10-13T03:46:19.869Z,8.97
2022-10-13T03:48:50.294Z,8.93
2022-10-13T03:51:23.084Z,8.90
2022-10-13T03:53:54.870Z,8.87
2022-10-13T03:56:26.954Z,8.86
2022-10-13T03:58:58.850Z,8.84
2022-10-13T04:01:30.933Z,8.85
2022-10-13T04:04:03.197Z,8.86
2022-10-13T04:06:33.685Z,8.87
2022-10-13T04:09:04.233Z,8.88
2022-10-13T04:11:35.018Z,8.88
2022-10-13T04:14:05.490Z,8.88
2022-10-13T04:16:35.777Z,8.88
2022-10-13T04:19:09.028Z,8.88
2022-10-13T04:21:39.789Z,8.89
2022-10-13T04:24:12.664Z,8.89
2022-10-13T04:26:43.651Z,8.89
2022-10-13T04:29:14.422Z,8.90
2022-10-13T04:31:44.855Z,8.91
2022-10-13T04:34:15.233Z,8.91
2022-10-13T04:36:45.584Z,8.91
2022-10-13T04:39:15.942Z,8.92
2022-10-13T04:41:47.493Z,8.90
2022-10-13T04:44:17.770Z,8.89
2022-10-13T04:46:48.226Z,8.88
2022-10-13T04:49:18.611Z,8.88
2022-10-13T04:51:49.012Z,8.88
2022-10-13T04:54:19.385Z,8.87
2022-10-13T04:56:49.769Z,8.87
2022-10-13T04:59:20.090Z,8.86
2022-10-13T05:01:50.453Z,8.85
2022-10-13T05:04:20.855Z,8.86
2022-10-13T05:07:16.358Z,8.86
2022-10-13T05:09:41.702Z,8.87
2022-10-13T05:12:14.221Z,8.89
2022-10-13T05:14:44.523Z,8.91
2022-10-13T05:17:14.883Z,8.94
2022-10-13T05:19:45.305Z,8.97
2022-10-13T05:22:15.669Z,9.00
2022-10-13T05:24:46.031Z,9.02
2022-10-13T05:27:16.435Z,9.03
2022-10-13T05:29:46.944Z,9.06
2022-10-13T05:32:17.623Z,9.08
2022-10-13T05:34:50.075Z,9.09
2022-10-13T05:37:22.594Z,9.10
2022-10-13T05:39:53.909Z,9.11
2022-10-13T05:42:23.279Z,9.10
2022-10-13T05:44:54.275Z,9.08
2022-10-13T05:47:28.104Z,9.06
2022-10-13T05:49:59.763Z,9.03
2022-10-13T05:52:33.461Z,9.01
2022-10-13T05:55:07.346Z,8.99
2022-10-13T05:57:42.075Z,8.96
2022-10-13T06:00:15.783Z,8.95
2022-10-13T06:02:50.696Z,8.94
2022-10-13T06:05:24.540Z,8.94
2022-10-13T06:07:56.987Z,8.94
2022-10-13T06:10:28.052Z,8.93
2022-10-13T06:12:58.386Z,8.94
2022-10-13T06:15:28.823Z,8.93
2022-10-13T06:18:00.140Z,8.93
2022-10-13T06:20:30.535Z,8.93
2022-10-13T06:23:01.015Z,8.94
2022-10-13T06:25:31.372Z,8.94
2022-10-13T06:28:01.810Z,8.95
2022-10-13T06:30:32.173Z,8.95
2022-10-13T06:33:02.501Z,8.98
2022-10-13T06:35:33.934Z,9.00
2022-10-13T06:38:04.843Z,9.02
2022-10-13T06:40:35.153Z,9.05
2022-10-13T06:43:06.099Z,9.08
2022-10-13T06:45:37.578Z,9.12
2022-10-13T06:48:08.271Z,9.18
2022-10-13T06:50:42.812Z,9.26
2022-10-13T06:53:13.715Z,9.34
2022-10-13T06:55:44.086Z,9.41
2022-10-13T06:58:14.927Z,9.49
2022-10-13T07:00:45.336Z,9.55
2022-10-13T07:03:16.192Z,9.62
2022-10-13T07:05:46.478Z,9.69
2022-10-13T07:08:16.897Z,9.74
2022-10-13T07:10:47.461Z,9.80
2022-10-13T07:13:17.865Z,9.86
2022-10-13T07:15:48.313Z,9.91
2022-10-13T07:18:19.979Z,9.97
2022-10-13T07:20:50.422Z,10.06
2022-10-13T07:23:20.811Z,10.15
2022-10-13T07:25:51.223Z,10.26
2022-10-13T07:28:23.637Z,10.36
2022-10-13T07:30:54.915Z,10.44
2022-10-13T07:33:25.535Z,10.54
2022-10-13T07:36:01.896Z,10.63
2022-10-13T07:38:32.304Z,10.71
2022-10-13T07:41:04.447Z,10.78
2022-10-13T07:43:35.047Z,10.85
2022-10-13T07:46:09.700Z,10.89
2022-10-13T07:48:40.520Z,10.92
2022-10-13T07:51:13.114Z,10.97
2022-10-13T07:53:46.608Z,11.03
2022-10-13T07:56:18.373Z,11.08
2022-10-13T07:58:49.646Z,11.13
2022-10-13T08:01:20.006Z,11.19
2022-10-13T08:03:50.903Z,11.23
2022-10-13T08:06:22.062Z,11.29
2022-10-13T08:08:55.307Z,11.37
2022-10-13T08:11:26.632Z,11.47
2022-10-13T08:14:00.908Z,11.61
2022-10-13T08:16:32.571Z,11.78
2022-10-13T08:19:03.056Z,11.95
2022-10-13T08:24:24.258Z,12.30
2022-10-13T08:26:54.959Z,12.46
2022-10-13T08:29:25.373Z,12.59
2022-10-13T08:31:56.587Z,12.74
2022-10-13T08:34:28.314Z,12.91
2022-10-13T08:37:00.322Z,13.06
2022-10-13T08:39:31.941Z,13.19
2022-10-13T08:42:03.058Z,13.27
2022-10-13T08:47:42.423Z,13.46
2022-10-13T08:50:22.468Z,13.47
2022-10-13T08:52:58.039Z,13.45
2022-10-13T08:55:32.643Z,13.40
2022-10-13T08:58:10.761Z,13.34
2022-10-13T09:00:42.539Z,13.24
2022-10-13T09:03:26.014Z,13.15
2022-10-13T09:06:12.455Z,13.06
2022-10-13T09:08:46.454Z,12.96
2022-10-13T09:11:16.885Z,12.90
2022-10-13T09:13:47.638Z,12.83
2022-10-13T09:16:26.678Z,12.76
2022-10-13T09:19:12.764Z,12.69
2022-10-13T09:21:43.430Z,12.61
2022-10-13T09:24:19.009Z,12.59
2022-10-13T09:26:52.583Z,12.59
2022-10-13T09:29:27.606Z,12.57
2022-10-13T09:32:14.247Z,12.58
2022-10-13T09:34:44.998Z,12.59
2022-10-13T09:37:25.887Z,12.59
2022-10-13T09:40:21.252Z,12.62
2022-10-13T09:42:55.006Z,12.64
2022-10-13T09:45:27.634Z,12.65
2022-10-13T09:48:01.529Z,12.66
2022-10-13T09:50:33.370Z,12.65
2022-10-13T09:53:24.230Z,12.64
2022-10-13T09:56:10.808Z,12.66
2022-10-13T09:58:49.568Z,12.67
2022-10-13T10:01:26.576Z,12.69
2022-10-13T10:03:58.426Z,12.71
2022-10-13T10:06:28.823Z,12.74
2022-10-13T10:09:06.668Z,12.78
2022-10-13T10:11:43.349Z,12.81
2022-10-13T10:14:25.030Z,12.84
2022-10-13T10:17:03.297Z,12.85
2022-10-13T10:19:45.689Z,12.85
2022-10-13T10:22:25.883Z,12.83
2022-10-13T10:25:04.780Z,12.78
2022-10-13T10:27:44.072Z,12.75
2022-10-13T10:30:19.366Z,12.74
2022-10-13T10:32:55.971Z,12.72
2022-10-13T10:35:42.300Z,12.68
2022-10-13T10:38:28.221Z,12.65
2022-10-13T10:41:08.854Z,12.63
2022-10-13T10:43:48.067Z,12.62
2022-10-13T10:46:24.022Z,12.61
2022-10-13T10:48:59.943Z,12.60
2022-10-13T10:51:34.212Z,12.59
2022-10-13T10:54:18.516Z,12.59
2022-10-13T10:56:54.387Z,12.58
2022-10-13T10:59:33.101Z,12.60
2022-10-13T11:02:20.765Z,12.63
2022-10-13T11:04:54.222Z,12.67
2022-10-13T11:08:01.248Z,12.70
2022-10-13T11:10:32.137Z,12.72
2022-10-13T11:13:22.347Z,12.73
2022-10-13T11:15:53.162Z,12.77
2022-10-13T11:19:12.779Z,12.80
2022-10-13T11:22:26.587Z,12.89
2022-10-13T11:25:04.352Z,13.02
2022-10-13T11:27:54.560Z,13.18
2022-10-13T11:30:50.562Z,13.34
2022-10-13T11:33:54.655Z,13.51
2022-10-13T11:36:51.732Z,13.70
2022-10-13T11:39:59.772Z,13.88
2022-10-13T11:42:49.225Z,14.08
2022-10-13T11:45:45.819Z,14.26
2022-10-13T11:48:39.964Z,14.44
2022-10-13T11:51:26.867Z,14.59
2022-10-13T11:54:07.278Z,14.81
2022-10-13T11:56:49.891Z,15.08
2022-10-13T11:59:26.843Z,15.38
2022-10-13T12:01:59.990Z,15.70
2022-10-13T12:04:30.765Z,15.96
2022-10-13T12:07:04.600Z,16.17
2022-10-13T12:09:37.466Z,16.45
2022-10-13T12:12:16.459Z,16.66
2022-10-13T12:14:51.510Z,16.77
2022-10-13T12:17:31.544Z,16.90
2022-10-13T12:20:19.058Z,16.87
2022-10-13T12:22:51.471Z,16.82
2022-10-13T12:25:24.676Z,16.79
2022-10-13T12:28:01.513Z,16.71
2022-10-13T12:30:36.307Z,16.67
2022-10-13T12:33:20.427Z,16.67
2022-10-13T12:35:50.875Z,16.67
2022-10-13T12:38:21.593Z,16.60
2022-10-13T12:40:54.480Z,16.53
2022-10-13T12:43:28.165Z,16.43
2022-10-13T12:45:59.039Z,16.36
2022-10-13T12:48:35.089Z,16.29
2022-10-13T12:51:23.694Z,16.22
2022-10-13T12:53:54.230Z,16.13
2022-10-13T12:56:32.040Z,16.03
2022-10-13T12:59:02.887Z,15.91
2022-10-13T13:01:35.509Z,15.81
2022-10-13T13:04:28.491Z,15.69
2022-10-13T13:07:00.782Z,15.56
2022-10-13T13:09:34.394Z,15.46
2022-10-13T13:12:27.718Z,15.39
2022-10-13T13:14:58.620Z,15.31
2022-10-13T13:17:56.624Z,15.27
2022-10-13T13:20:26.961Z,15.25
2022-10-13T13:22:57.374Z,15.22
2022-10-13T13:25:28.264Z,15.20
2022-10-13T13:27:58.725Z,15.16
2022-10-13T13:30:29.814Z,15.14
2022-10-13T13:33:00.315Z,15.14
2022-10-13T13:35:30.837Z,15.17
2022-10-13T13:38:01.617Z,15.22
2022-10-13T13:40:32.397Z,15.20
2022-10-13T13:43:02.958Z,15.18
2022-10-13T13:45:36.480Z,15.18
2022-10-13T13:48:13.110Z,15.15
2022-10-13T13:50:43.697Z,15.13
2022-10-13T13:53:14.068Z,15.13
2022-10-13T13:55:47.531Z,15.15
2022-10-13T13:58:20.760Z,15.20
2022-10-13T14:00:51.328Z,15.27
2022-10-13T14:03:21.765Z,15.39
2022-10-13T14:05:52.155Z,15.53
2022-10-13T14:08:22.782Z,15.62
2022-10-13T14:10:53.451Z,15.70
2022-10-13T14:13:25.397Z,15.76
2022-10-13T14:16:01.836Z,15.80
2022-10-13T14:18:32.701Z,15.82
2022-10-13T14:21:06.087Z,15.83
2022-10-13T14:23:36.584Z,15.87
2022-10-13T14:26:10.813Z,15.88
2022-10-13T14:28:43.660Z,15.83
2022-10-13T14:31:14.614Z,15.78
2022-10-13T14:33:47.224Z,15.72
2022-10-13T14:36:20.478Z,15.68
2022-10-13T14:38:54.875Z,15.61
2022-10-13T14:41:26.274Z,15.57
2022-10-13T14:44:01.594Z,15.53
2022-10-13T14:46:34.627Z,15.49
2022-10-13T14:49:05.107Z,15.47
2022-10-13T14:51:36.750Z,15.44
2022-10-13T14:54:07.876Z,15.42
2022-10-13T14:56:38.770Z,15.40
2022-10-13T14:59:11.211Z,15.38
2022-10-13T15:01:43.864Z,15.36
2022-10-13T15:04:14.155Z,15.34
2022-10-13T15:06:44.596Z,15.30
2022-10-13T15:09:15.027Z,15.27
2022-10-13T15:11:46.287Z,15.23
2022-10-13T15:14:15.182Z,15.19
2022-10-13T15:16:45.574Z,15.16
2022-10-13T15:19:15.993Z,15.11
2022-10-13T15:21:46.312Z,15.09
2022-10-13T15:24:16.637Z,15.07
2022-10-13T15:26:48.816Z,15.06
2022-10-13T15:29:19.366Z,15.04
2022-10-13T15:31:49.788Z,15.04
2022-10-13T15:34:20.229Z,15.04
2022-10-13T15:36:50.637Z,15.04
2022-10-13T15:39:21.012Z,15.02
2022-10-13T15:41:51.282Z,15.01
2022-10-13T15:44:22.887Z,14.99
2022-10-13T15:47:07.543Z,14.96
2022-10-13T15:49:39.420Z,14.94
2022-10-13T15:52:09.869Z,14.92
2022-10-13T15:54:41.043Z,14.90
2022-10-13T15:57:11.772Z,14.88
2022-10-13T15:59:42.333Z,14.85
2022-10-13T16:02:13.056Z,14.81
2022-10-13T16:04:43.440Z,14.78
2022-10-13T16:07:13.916Z,14.75
2022-10-13T16:09:44.257Z,14.71
2022-10-13T16:12:14.761Z,14.68
2022-10-13T16:14:45.238Z,14.63
2022-10-13T16:17:15.538Z,14.58
2022-10-13T16:19:45.956Z,14.52
2022-10-13T16:22:16.390Z,14.47
2022-10-13T16:24:46.970Z,14.42
2022-10-13T16:27:17.278Z,14.37
2022-10-13T16:29:47.653Z,14.32
2022-10-13T16:32:18.418Z,14.27
2022-10-13T16:34:50.766Z,14.20
2022-10-13T16:37:22.807Z,14.13
2022-10-13T16:39:53.488Z,14.05
2022-10-13T16:42:23.894Z,13.97
2022-10-13T16:44:54.369Z,13.91
2022-10-13T16:47:25.141Z,13.85
2022-10-13T16:49:55.698Z,13.79
2022-10-13T16:52:27.576Z,13.75
2022-10-13T16:54:57.902Z,13.70
2022-10-13T16:57:29.692Z,13.66
2022-10-13T17:00:00.476Z,13.63
2022-10-13T17:02:32.082Z,13.58
2022-10-13T17:05:02.456Z,13.54
2022-10-13T17:07:37.595Z,13.49
2022-10-13T17:10:24.015Z,13.44
2022-10-13T17:12:55.496Z,13.40
2022-10-13T17:15:25.905Z,13.35
2022-10-13T17:17:57.222Z,13.30
2022-10-13T17:20:25.978Z,13.27
2022-10-13T17:22:56.281Z,13.24
2022-10-13T17:25:27.274Z,13.20
2022-10-13T17:27:57.738Z,13.16
2022-10-13T17:30:28.253Z,13.14
2022-10-13T17:33:03.451Z,13.10
2022-10-13T17:35:37.350Z,13.07
2022-10-13T17:38:08.594Z,13.04
2022-10-13T17:40:39.058Z,13.02
2022-10-13T17:43:09.949Z,13.01
2022-10-13T17:45:40.512Z,12.99
2022-10-13T17:48:14.134Z,12.99
2022-10-13T17:50:45.704Z,12.99
2022-10-13T17:53:16.013Z,12.98
2022-10-13T17:55:46.986Z,12.96
2022-10-13T17:58:16.245Z,12.95
2022-10-13T18:01:11.874Z,12.94
2022-10-13T18:03:37.390Z,12.91
2022-10-13T18:06:09.854Z,12.89
2022-10-13T18:08:40.401Z,12.87
2022-10-13T18:11:13.390Z,12.86
2022-10-13T18:13:45.135Z,12.85
2022-10-13T18:16:17.259Z,12.83
2022-10-13T18:18:50.058Z,12.82
2022-10-13T18:21:24.081Z,12.81
2022-10-13T18:23:56.418Z,12.80
2022-10-13T18:26:28.242Z,12.79
2022-10-13T18:28:59.661Z,12.79
2022-10-13T18:31:32.624Z,12.78
2022-10-13T18:34:06.527Z,12.77
2022-10-13T18:36:39.588Z,12.76
2022-10-13T18:39:14.878Z,12.76
2022-10-13T18:41:49.228Z,12.75
2022-10-13T18:44:18.184Z,12.74
2022-10-13T18:46:52.346Z,12.73
2022-10-13T18:49:30.964Z,12.71
2022-10-13T18:52:02.762Z,12.69
2022-10-13T18:54:34.379Z,12.67
2022-10-13T18:57:04.828Z,12.65
2022-10-13T18:59:38.719Z,12.63
2022-10-13T19:02:14.538Z,12.61
2022-10-13T19:04:45.131Z,12.59
2022-10-13T19:07:15.697Z,12.59
2022-10-13T19:09:46.208Z,12.59
2022-10-13T19:12:16.782Z,12.58
2022-10-13T19:14:47.649Z,12.57
2022-10-13T19:17:18.320Z,12.56
2022-10-13T19:19:49.197Z,12.55
2022-10-13T19:22:19.696Z,12.55
2022-10-13T19:24:50.164Z,12.55
2022-10-13T19:27:23.130Z,12.55
2022-10-13T19:29:55.337Z,12.57
2022-10-13T19:32:25.879Z,12.58
2022-10-13T19:34:56.225Z,12.58
2022-10-13T19:37:26.580Z,12.60
2022-10-13T19:39:57.029Z,12.63
2022-10-13T19:42:27.431Z,12.65
2022-10-13T19:44:58.220Z,12.67
2022-10-13T19:47:29.053Z,12.69
2022-10-13T19:49:59.514Z,12.70
2022-10-13T19:52:30.530Z,12.71
2022-10-13T19:55:02.041Z,12.72
2022-10-13T19:57:32.437Z,12.73
2022-10-13T20:00:02.979Z,12.73
2022-10-13T20:02:43.130Z,12.74
2022-10-13T20:05:13.608Z,12.74
2022-10-13T20:07:44.279Z,12.74
2022-10-13T20:10:14.774Z,12.73
2022-10-13T20:12:45.164Z,12.72
2022-10-13T20:15:15.575Z,12.71
2022-10-13T20:17:46.243Z,12.70
2022-10-13T20:20:20.130Z,12.69
2022-10-13T20:22:52.792Z,12.67
2022-10-13T20:25:23.124Z,12.66
2022-10-13T20:27:53.590Z,12.65
2022-10-13T20:30:24.126Z,12.66
2022-10-13T20:32:54.451Z,12.65
2022-10-13T20:35:26.545Z,12.66
2022-10-13T20:37:56.261Z,12.68
2022-10-13T20:40:26.708Z,12.69
2022-10-13T20:42:57.055Z,12.70
2022-10-13T20:45:27.601Z,12.70
2022-10-13T20:47:57.982Z,12.70
2022-10-13T20:50:29.502Z,12.70
2022-10-13T20:52:59.888Z,12.70
2022-10-13T20:55:31.144Z,12.71
2022-10-13T20:58:01.594Z,12.71
2022-10-13T21:00:32.006Z,12.72
2022-10-13T21:03:02.515Z,12.70
2022-10-13T21:05:34.567Z,12.70
2022-10-13T21:08:05.194Z,12.70
2022-10-13T21:10:38.402Z,12.69
2022-10-13T21:13:08.893Z,12.67
2022-10-13T21:15:42.826Z,12.67
2022-10-13T21:18:14.226Z,12.66
2022-10-13T21:20:44.863Z,12.66
2022-10-13T21:23:15.358Z,12.65
2022-10-13T21:25:45.841Z,12.65
2022-10-13T21:28:16.422Z,12.63
2022-10-13T21:30:46.930Z,12.63
2022-10-13T21:33:17.566Z,12.62
2022-10-13T21:35:48.009Z,12.61
2022-10-13T21:38:18.334Z,12.61
2022-10-13T21:40:52.978Z,12.61
2022-10-13T21:43:24.910Z,12.61
2022-10-13T21:45:55.662Z,12.60
2022-10-13T21:48:26.099Z,12.59
2022-10-13T21:50:56.637Z,12.59
2022-10-13T21:53:27.103Z,12.59
2022-10-13T21:55:57.609Z,12.59
2022-10-13T21:58:28.090Z,12.59
2022-10-13T22:01:04.373Z,12.59
2022-10-13T22:03:35.430Z,12.59
2022-10-13T22:06:14.612Z,12.58
2022-10-13T22:08:50.069Z,12.58
2022-10-13T22:11:28.406Z,12.58
2022-10-13T22:14:00.377Z,12.57
2022-10-13T22:16:33.462Z,12.57
2022-10-13T22:19:03.939Z,12.57
2022-10-13T22:21:39.875Z,12.56
2022-10-13T22:24:12.329Z,12.56
2022-10-13T22:26:44.154Z,12.55
2022-10-13T22:29:16.906Z,12.55
2022-10-13T22:31:47.306Z,12.53
2022-10-13T22:34:18.818Z,12.54
2022-10-13T22:36:49.371Z,12.54
2022-10-13T22:39:19.985Z,12.55
2022-10-13T22:41:51.438Z,12.55
2022-10-13T22:44:21.871Z,12.54
2022-10-13T22:46:52.323Z,12.55
2022-10-13T22:49:22.686Z,12.56
2022-10-13T22:51:53.479Z,12.56
2022-10-13T22:54:23.910Z,12.56
2022-10-13T22:56:56.170Z,12.55
2022-10-13T22:59:26.747Z,12.54
2022-10-13T23:01:57.227Z,12.53
2022-10-13T23:04:28.043Z,12.53
2022-10-13T23:06:58.473Z,12.52
2022-10-13T23:09:28.890Z,12.52
2022-10-13T23:12:00.039Z,12.52
2022-10-13T23:14:31.532Z,12.51
2022-10-13T23:17:02.007Z,12.51
2022-10-13T23:19:32.642Z,12.51
2022-10-13T23:22:03.173Z,12.50
2022-10-13T23:24:34.015Z,12.50
2022-10-13T23:27:04.482Z,12.49
2022-10-13T23:29:35.663Z,12.49
2022-10-13T23:32:09.692Z,12.48
2022-10-13T23:34:40.562Z,12.47
2022-10-13T23:37:11.775Z,12.46
2022-10-13T23:39:42.430Z,12.46
2022-10-13T23:42:13.268Z,12.45
2022-10-13T23:44:43.611Z,12.44
2022-10-13T23:47:14.036Z,12.42
2022-10-13T23:49:44.471Z,12.42
2022-10-13T23:52:14.792Z,12.41
2022-10-13T23:54:45.241Z,12.40
2022-10-13T23:57:16.948Z,12.38
2022-10-13T23:59:47.431Z,12.37
